Time;durP1;ratioP1;P1;durP2;ratioP2;P2;SDS_P1;SDS_P2;PMS_P1;PMS_P2;Temp;Humidity;BMP_temperature;BMP_pressure;BME280_temperature;BME280_humidity;BME280_pressure;Samples;Min_cycle;Max_cycle;Signal;HPM_P1;HPM_P2
2021/12/14 00:00:31;;;;;;;23.90;15.10;;;;;;;;;;5085509;28;20790;-61
2021/12/14 00:02:58;;;;;;;23.75;14.57;;;;;;;;;;5086663;28;20039;-61
2021/12/14 00:05:26;;;;;;;23.00;15.98;;;;;;;;;;5081475;28;20075;-62
2021/12/14 00:07:56;;;;;;;24.63;15.30;;;;;;;;;;5083756;28;20403;-61
2021/12/14 00:13:11;;;;;;;24.30;14.57;;;;;;;;;;5087780;28;20052;-62
2021/12/14 00:15:38;;;;;;;24.63;15.48;;;;;;;;;;5089673;28;20052;-61
2021/12/14 00:18:07;;;;;;;28.08;15.77;;;;;;;;;;5092637;28;20047;-62
2021/12/14 00:20:37;;;;;;;21.52;14.60;;;;;;;;;;5089134;28;20086;-61
2021/12/14 00:25:34;;;;;;;24.02;16.65;;;;;;;;;;5087863;28;20433;-61
2021/12/14 00:28:15;;;;;;;25.40;15.80;;;;;;;;;;5087707;28;20044;-62
2021/12/14 00:30:43;;;;;;;24.48;16.75;;;;;;;;;;5093807;28;20040;-62
2021/12/14 00:33:12;;;;;;;23.95;17.10;;;;;;;;;;5088040;28;20044;-61
2021/12/14 00:35:39;;;;;;;28.42;16.58;;;;;;;;;;5087959;28;20047;-62
2021/12/14 00:38:06;;;;;;;24.88;17.23;;;;;;;;;;5087784;28;20149;-61
2021/12/14 00:40:34;;;;;;;25.17;16.42;;;;;;;;;;5085654;28;20076;-62
2021/12/14 00:43:01;;;;;;;30.30;18.95;;;;;;;;;;5083333;28;20078;-62
2021/12/14 00:45:29;;;;;;;27.52;17.42;;;;;;;;;;5088281;28;20089;-62
2021/12/14 00:47:56;;;;;;;27.13;17.17;;;;;;;;;;5084568;28;20058;-62
2021/12/14 00:50:24;;;;;;;29.42;17.67;;;;;;;;;;5079722;28;20040;-62
2021/12/14 00:52:50;;;;;;;25.88;16.70;;;;;;;;;;5081601;28;20040;-61
2021/12/14 00:55:19;;;;;;;26.13;17.50;;;;;;;;;;5076008;28;20119;-62
2021/12/14 00:57:45;;;;;;;27.92;18.05;;;;;;;;;;5080320;28;20144;-62
2021/12/14 01:00:13;;;;;;;29.92;17.88;;;;;;;;;;5087617;28;20032;-62
2021/12/14 01:02:39;;;;;;;28.95;17.52;;;;;;;;;;5084099;28;20087;-62
2021/12/14 01:05:11;;;;;;;30.02;18.92;;;;;;;;;;5082441;28;20506;-62
2021/12/14 01:07:37;;;;;;;29.15;19.55;;;;;;;;;;5086433;28;20051;-62
2021/12/14 01:10:08;;;;;;;29.15;18.77;;;;;;;;;;5079449;28;20124;-61
2021/12/14 01:12:44;;;;;;;28.83;18.75;;;;;;;;;;5079093;28;20045;-62
2021/12/14 01:15:42;;;;;;;28.40;18.95;;;;;;;;;;5079694;28;20080;-62
2021/12/14 01:18:27;;;;;;;31.65;20.98;;;;;;;;;;5081789;28;20527;-62
2021/12/14 01:20:59;;;;;;;31.95;20.60;;;;;;;;;;5088576;28;20047;-62
2021/12/14 01:23:31;;;;;;;28.88;19.52;;;;;;;;;;5087028;28;20036;-62
2021/12/14 01:26:01;;;;;;;29.58;19.60;;;;;;;;;;5076721;28;20119;-62
2021/12/14 01:28:30;;;;;;;33.28;21.15;;;;;;;;;;5088254;28;20446;-62
2021/12/14 01:31:09;;;;;;;30.95;20.17;;;;;;;;;;5081558;28;20087;-62
2021/12/14 01:33:37;;;;;;;31.80;21.52;;;;;;;;;;5076174;28;20083;-62
2021/12/14 01:36:10;;;;;;;28.65;19.35;;;;;;;;;;5084446;28;20044;-62
2021/12/14 01:38:46;;;;;;;32.42;21.40;;;;;;;;;;5081322;28;20048;-62
2021/12/14 01:41:14;;;;;;;31.98;20.73;;;;;;;;;;5085319;28;20046;-62
2021/12/14 01:43:43;;;;;;;31.77;20.88;;;;;;;;;;5089255;28;20051;-62
2021/12/14 01:46:13;;;;;;;30.73;21.25;;;;;;;;;;5086207;28;20422;-62
2021/12/14 01:48:40;;;;;;;32.40;21.33;;;;;;;;;;5082414;28;20436;-62
2021/12/14 01:51:07;;;;;;;34.22;20.52;;;;;;;;;;5082780;28;20192;-62
2021/12/14 01:53:35;;;;;;;33.58;21.25;;;;;;;;;;5084558;28;20039;-62
2021/12/14 01:56:03;;;;;;;32.58;20.70;;;;;;;;;;5087863;28;20521;-62
2021/12/14 01:58:38;;;;;;;32.40;21.45;;;;;;;;;;5087935;28;20063;-62
2021/12/14 02:01:10;;;;;;;34.00;21.98;;;;;;;;;;5083745;28;20047;-62
2021/12/14 02:03:39;;;;;;;32.28;21.13;;;;;;;;;;5093941;28;20062;-62
2021/12/14 02:06:05;;;;;;;35.15;21.48;;;;;;;;;;5089623;28;20048;-62
2021/12/14 02:08:35;;;;;;;34.85;21.55;;;;;;;;;;5087054;28;20140;-62
2021/12/14 02:11:04;;;;;;;35.83;21.25;;;;;;;;;;5084903;28;20043;-62
2021/12/14 02:13:33;;;;;;;33.97;22.20;;;;;;;;;;5090413;28;20066;-62
2021/12/14 02:16:00;;;;;;;35.53;22.75;;;;;;;;;;5089283;28;20048;-61
2021/12/14 02:18:27;;;;;;;32.25;21.55;;;;;;;;;;5088219;28;20395;-62
2021/12/14 02:20:55;;;;;;;35.30;21.65;;;;;;;;;;5088170;28;20036;-62
2021/12/14 02:23:21;;;;;;;33.53;22.80;;;;;;;;;;5090747;28;20085;-62
2021/12/14 02:25:48;;;;;;;35.67;22.90;;;;;;;;;;5091043;28;20093;-62
2021/12/14 02:28:18;;;;;;;32.75;22.23;;;;;;;;;;5084541;28;20048;-62
2021/12/14 02:30:44;;;;;;;39.47;23.65;;;;;;;;;;5083239;28;20044;-62
2021/12/14 02:33:19;;;;;;;42.05;22.70;;;;;;;;;;5089784;28;20531;-62
2021/12/14 02:35:47;;;;;;;34.75;22.50;;;;;;;;;;5090002;28;20043;-62
2021/12/14 02:38:13;;;;;;;39.40;22.30;;;;;;;;;;5087115;28;20526;-62
2021/12/14 02:40:53;;;;;;;35.55;22.48;;;;;;;;;;5080228;28;20559;-62
2021/12/14 02:43:28;;;;;;;38.13;23.42;;;;;;;;;;5088321;28;20386;-62
2021/12/14 02:46:01;;;;;;;35.00;23.05;;;;;;;;;;5090903;28;20341;-62
2021/12/14 02:48:27;;;;;;;36.42;22.33;;;;;;;;;;5086568;28;20090;-62
2021/12/14 02:50:53;;;;;;;39.10;23.75;;;;;;;;;;5081440;28;20470;-62
2021/12/14 02:53:20;;;;;;;34.05;22.38;;;;;;;;;;5086991;28;20055;-62
2021/12/14 02:55:46;;;;;;;40.00;24.48;;;;;;;;;;5087290;28;20036;-62
2021/12/14 02:58:12;;;;;;;37.45;24.63;;;;;;;;;;5087595;28;20102;-62
2021/12/14 03:00:39;;;;;;;35.58;23.40;;;;;;;;;;5084347;28;20036;-63
2021/12/14 03:03:06;;;;;;;42.65;25.52;;;;;;;;;;5089704;28;20040;-62
2021/12/14 03:05:35;;;;;;;38.72;24.45;;;;;;;;;;5090331;28;20036;-62
2021/12/14 03:08:05;;;;;;;38.42;24.90;;;;;;;;;;5083114;28;20040;-62
2021/12/14 03:10:38;;;;;;;39.08;24.58;;;;;;;;;;5080359;28;20056;-62
2021/12/14 03:13:06;;;;;;;43.63;26.20;;;;;;;;;;5090352;28;20058;-62
2021/12/14 03:15:41;;;;;;;37.67;24.77;;;;;;;;;;5089866;28;20051;-62
2021/12/14 03:18:09;;;;;;;44.28;26.27;;;;;;;;;;5085233;28;20058;-61
2021/12/14 03:20:38;;;;;;;39.75;24.92;;;;;;;;;;5086077;28;20036;-62
2021/12/14 03:23:07;;;;;;;40.42;25.63;;;;;;;;;;5083559;28;20044;-62
2021/12/14 03:25:35;;;;;;;43.47;26.02;;;;;;;;;;5085136;28;20044;-62
2021/12/14 03:28:01;;;;;;;44.45;27.35;;;;;;;;;;5086279;28;20036;-62
2021/12/14 03:30:31;;;;;;;41.03;25.85;;;;;;;;;;5083352;28;20399;-62
2021/12/14 03:32:59;;;;;;;44.63;26.90;;;;;;;;;;5082434;28;20054;-62
2021/12/14 03:35:37;;;;;;;42.10;26.58;;;;;;;;;;5086037;28;20047;-62
2021/12/14 03:38:06;;;;;;;40.63;26.60;;;;;;;;;;5082851;28;20066;-62
2021/12/14 03:40:32;;;;;;;42.28;26.73;;;;;;;;;;5081815;28;20379;-62
2021/12/14 03:42:58;;;;;;;43.95;27.00;;;;;;;;;;5084769;28;20032;-62
2021/12/14 03:45:24;;;;;;;42.55;27.23;;;;;;;;;;5082867;28;20051;-62
2021/12/14 03:47:53;;;;;;;46.65;28.08;;;;;;;;;;5082669;28;20380;-62
2021/12/14 03:50:21;;;;;;;48.30;29.38;;;;;;;;;;5083918;28;20414;-62
2021/12/14 03:52:47;;;;;;;50.00;29.88;;;;;;;;;;5079938;28;20372;-62
2021/12/14 03:55:17;;;;;;;59.25;30.77;;;;;;;;;;5083654;28;20048;-62
2021/12/14 03:57:43;;;;;;;60.08;31.67;;;;;;;;;;5085326;28;20054;-62
2021/12/14 04:00:12;;;;;;;59.53;32.58;;;;;;;;;;5078333;28;20054;-62
2021/12/14 04:02:38;;;;;;;58.95;33.05;;;;;;;;;;5083932;28;20447;-62
2021/12/14 04:05:10;;;;;;;68.75;33.65;;;;;;;;;;5086976;28;20040;-62
2021/12/14 04:07:37;;;;;;;62.72;33.03;;;;;;;;;;5084155;28;20044;-62
2021/12/14 04:10:06;;;;;;;58.63;32.45;;;;;;;;;;5084480;28;20081;-61
2021/12/14 04:12:32;;;;;;;66.60;31.48;;;;;;;;;;5082844;28;20070;-62
2021/12/14 04:14:58;;;;;;;64.05;33.00;;;;;;;;;;5085984;28;20036;-62
2021/12/14 04:17:27;;;;;;;65.90;33.15;;;;;;;;;;5087136;28;20518;-62
2021/12/14 04:19:53;;;;;;;65.75;34.35;;;;;;;;;;5087217;28;20048;-62
2021/12/14 04:22:21;;;;;;;65.93;32.80;;;;;;;;;;5083945;28;20043;-62
2021/12/14 04:24:49;;;;;;;68.55;33.72;;;;;;;;;;5085665;28;20120;-62
2021/12/14 04:27:19;;;;;;;60.55;34.45;;;;;;;;;;5079901;28;20077;-62
2021/12/14 04:29:46;;;;;;;62.65;34.45;;;;;;;;;;5081222;28;20102;-62
2021/12/14 04:32:14;;;;;;;60.00;33.90;;;;;;;;;;5083770;28;20036;-62
2021/12/14 04:34:41;;;;;;;62.30;34.03;;;;;;;;;;5084718;28;20143;-62
2021/12/14 04:37:08;;;;;;;73.03;34.60;;;;;;;;;;5085279;28;20044;-62
2021/12/14 04:39:40;;;;;;;68.22;35.80;;;;;;;;;;5082215;28;20032;-62
2021/12/14 04:53:27;;;;;;;75.38;36.38;;;;;;;;;;5087319;28;20055;-62
2021/12/14 04:55:55;;;;;;;74.95;37.20;;;;;;;;;;5083138;28;20039;-62
2021/12/14 04:58:27;;;;;;;74.68;36.42;;;;;;;;;;5085673;28;20052;-62
2021/12/14 05:00:54;;;;;;;70.80;35.22;;;;;;;;;;5085688;28;20161;-62
2021/12/14 05:03:25;;;;;;;71.70;37.22;;;;;;;;;;5087470;28;20048;-62
2021/12/14 05:06:08;;;;;;;77.55;38.15;;;;;;;;;;5084283;28;20126;-61
2021/12/14 05:11:04;;;;;;;77.10;37.65;;;;;;;;;;5088711;28;20040;-62
2021/12/14 05:13:32;;;;;;;70.13;36.05;;;;;;;;;;5086962;28;21432;-62
2021/12/14 05:15:59;;;;;;;72.00;36.42;;;;;;;;;;5089379;28;20047;-62
2021/12/14 05:18:25;;;;;;;72.82;36.00;;;;;;;;;;5087940;28;20036;-62
2021/12/14 05:20:52;;;;;;;73.72;36.78;;;;;;;;;;5089445;28;20047;-62
2021/12/14 05:23:23;;;;;;;67.68;37.03;;;;;;;;;;5086034;28;20032;-62
2021/12/14 05:25:50;;;;;;;75.90;38.20;;;;;;;;;;5083438;28;20054;-62
2021/12/14 05:28:19;;;;;;;73.10;37.22;;;;;;;;;;5088430;28;20040;-62
2021/12/14 05:30:46;;;;;;;79.72;39.35;;;;;;;;;;5084389;28;20044;-62
2021/12/14 05:33:15;;;;;;;79.72;39.38;;;;;;;;;;5092842;28;20439;-62
2021/12/14 05:35:42;;;;;;;83.35;40.20;;;;;;;;;;5088702;28;20137;-62
2021/12/14 05:38:17;;;;;;;84.85;41.10;;;;;;;;;;5080936;28;20066;-62
2021/12/14 05:40:58;;;;;;;83.60;41.63;;;;;;;;;;5088182;28;20052;-62
2021/12/14 05:43:26;;;;;;;92.75;41.95;;;;;;;;;;5086687;28;20105;-62
2021/12/14 05:45:54;;;;;;;89.18;42.28;;;;;;;;;;5086107;28;20494;-62
2021/12/14 05:48:22;;;;;;;93.70;43.65;;;;;;;;;;5081261;28;20055;-62
2021/12/14 05:50:50;;;;;;;97.43;44.22;;;;;;;;;;5094016;28;20044;-62
2021/12/14 05:53:21;;;;;;;94.72;43.70;;;;;;;;;;5078803;28;20558;-62
2021/12/14 05:55:47;;;;;;;98.22;43.38;;;;;;;;;;5086169;28;20039;-62
2021/12/14 05:58:15;;;;;;;103.30;45.88;;;;;;;;;;5077301;28;20040;-62
2021/12/14 06:00:44;;;;;;;104.72;46.55;;;;;;;;;;5082894;28;20056;-62
2021/12/14 06:03:19;;;;;;;113.93;48.75;;;;;;;;;;5083489;28;20048;-62
2021/12/14 06:05:46;;;;;;;108.53;47.92;;;;;;;;;;5081355;28;20056;-62
2021/12/14 06:08:18;;;;;;;122.65;49.95;;;;;;;;;;5084967;28;20149;-62
2021/12/14 06:10:44;;;;;;;121.13;48.25;;;;;;;;;;5085457;28;20040;-62
2021/12/14 06:13:10;;;;;;;112.85;48.40;;;;;;;;;;5080748;28;20044;-62
2021/12/14 06:15:37;;;;;;;111.55;48.78;;;;;;;;;;5086711;28;20054;-62
2021/12/14 06:18:03;;;;;;;118.45;48.75;;;;;;;;;;5079885;28;20044;-63
2021/12/14 06:20:29;;;;;;;134.77;53.85;;;;;;;;;;5081593;28;20052;-63
2021/12/14 06:22:56;;;;;;;120.38;51.83;;;;;;;;;;5082080;28;20048;-62
2021/12/14 06:25:24;;;;;;;121.03;50.92;;;;;;;;;;5083541;28;20041;-62
2021/12/14 06:27:50;;;;;;;126.32;50.92;;;;;;;;;;5093435;28;20130;-62
2021/12/14 06:30:19;;;;;;;130.63;51.53;;;;;;;;;;5093114;28;20040;-62
2021/12/14 06:32:47;;;;;;;132.50;52.05;;;;;;;;;;5096620;28;20071;-62
2021/12/14 06:35:18;;;;;;;118.10;49.88;;;;;;;;;;5097973;28;20039;-62
2021/12/14 06:40:33;;;;;;;119.82;50.53;;;;;;;;;;5090953;28;20666;-61
2021/12/14 06:43:01;;;;;;;126.78;52.08;;;;;;;;;;5091140;28;20087;-62
2021/12/14 06:45:29;;;;;;;136.50;54.47;;;;;;;;;;5092034;28;20043;-62
2021/12/14 06:47:58;;;;;;;140.95;54.22;;;;;;;;;;5092088;28;20128;-62
2021/12/14 06:50:27;;;;;;;144.45;54.25;;;;;;;;;;5091285;28;20048;-62
2021/12/14 06:52:54;;;;;;;151.20;56.67;;;;;;;;;;5091688;28;20122;-62
2021/12/14 06:55:22;;;;;;;142.23;53.72;;;;;;;;;;5090996;28;20139;-62
2021/12/14 06:57:48;;;;;;;153.73;57.42;;;;;;;;;;5092225;28;20036;-62
2021/12/14 07:00:15;;;;;;;149.32;53.15;;;;;;;;;;5091485;28;20076;-62
2021/12/14 07:02:45;;;;;;;146.88;56.65;;;;;;;;;;5091230;28;20040;-62
2021/12/14 07:05:20;;;;;;;153.73;56.97;;;;;;;;;;5090725;28;20099;-62
2021/12/14 07:07:46;;;;;;;158.40;57.70;;;;;;;;;;5082366;28;20060;-62
2021/12/14 07:10:13;;;;;;;149.15;55.22;;;;;;;;;;5077070;28;20048;-63
2021/12/14 07:12:40;;;;;;;149.85;57.30;;;;;;;;;;5086698;28;20069;-62
2021/12/14 07:15:10;;;;;;;160.23;57.83;;;;;;;;;;5085939;28;20195;-62
2021/12/14 07:17:46;;;;;;;158.20;56.60;;;;;;;;;;5085945;28;20496;-62
2021/12/14 07:20:12;;;;;;;171.15;58.53;;;;;;;;;;5089083;28;20117;-62
2021/12/14 07:22:44;;;;;;;197.80;61.22;;;;;;;;;;5089737;28;20044;-63
2021/12/14 07:25:21;;;;;;;187.18;60.13;;;;;;;;;;5092259;28;20395;-62
2021/12/14 07:27:49;;;;;;;181.32;60.47;;;;;;;;;;5091463;28;20119;-62
2021/12/14 07:30:16;;;;;;;184.02;60.42;;;;;;;;;;5088821;28;20463;-62
2021/12/14 07:32:48;;;;;;;183.68;61.88;;;;;;;;;;5089546;28;20066;-62
2021/12/14 07:35:18;;;;;;;195.10;59.88;;;;;;;;;;5093186;28;20432;-62
2021/12/14 07:37:44;;;;;;;184.73;60.58;;;;;;;;;;5090417;28;20044;-62
2021/12/14 07:40:11;;;;;;;180.68;59.28;;;;;;;;;;5092467;28;20141;-62
2021/12/14 07:42:37;;;;;;;190.70;60.70;;;;;;;;;;5091047;28;20047;-62
2021/12/14 07:45:04;;;;;;;177.68;60.00;;;;;;;;;;5085550;28;20043;-63
2021/12/14 07:47:30;;;;;;;178.30;60.05;;;;;;;;;;5091605;28;20072;-62
2021/12/14 07:49:57;;;;;;;160.45;59.03;;;;;;;;;;5090771;28;20052;-62
2021/12/14 07:52:26;;;;;;;180.30;59.00;;;;;;;;;;5089475;28;20396;-62
2021/12/14 07:54:55;;;;;;;174.82;58.78;;;;;;;;;;5091569;28;20399;-62
2021/12/14 07:57:24;;;;;;;175.75;59.15;;;;;;;;;;5091871;28;20083;-62
2021/12/14 07:59:52;;;;;;;171.07;58.38;;;;;;;;;;5086781;28;20052;-62
2021/12/14 08:02:20;;;;;;;184.02;57.58;;;;;;;;;;5089501;28;20047;-62
2021/12/14 08:04:51;;;;;;;169.73;58.90;;;;;;;;;;5089700;28;20047;-62
2021/12/14 08:07:26;;;;;;;190.20;60.60;;;;;;;;;;5084027;28;20124;-62
2021/12/14 08:09:53;;;;;;;177.15;59.17;;;;;;;;;;5090355;28;20499;-62
2021/12/14 08:12:27;;;;;;;200.02;61.00;;;;;;;;;;5089563;28;20050;-62
2021/12/14 08:15:06;;;;;;;162.25;56.47;;;;;;;;;;5092131;28;20051;-62
2021/12/14 08:17:32;;;;;;;164.85;56.10;;;;;;;;;;5092716;28;20047;-62
2021/12/14 08:19:58;;;;;;;161.38;56.55;;;;;;;;;;5094008;28;20504;-62
2021/12/14 08:22:34;;;;;;;169.32;55.70;;;;;;;;;;5092846;28;20051;-62
2021/12/14 08:25:00;;;;;;;150.82;54.83;;;;;;;;;;5094046;28;20075;-62
2021/12/14 08:27:28;;;;;;;172.38;57.83;;;;;;;;;;5094914;28;20081;-62
2021/12/14 08:29:56;;;;;;;165.88;56.60;;;;;;;;;;5095142;28;20048;-62
2021/12/14 08:32:24;;;;;;;184.30;58.67;;;;;;;;;;5094078;28;20043;-62
2021/12/14 08:34:52;;;;;;;178.05;58.42;;;;;;;;;;5097728;28;20051;-62
2021/12/14 08:37:20;;;;;;;166.68;58.28;;;;;;;;;;5094096;28;20032;-62
2021/12/14 08:39:50;;;;;;;177.20;57.55;;;;;;;;;;5096104;28;20410;-62
2021/12/14 08:42:20;;;;;;;172.00;57.38;;;;;;;;;;5097350;28;20052;-62
2021/12/14 08:44:52;;;;;;;169.77;56.97;;;;;;;;;;5092737;28;20529;-62
2021/12/14 08:47:23;;;;;;;170.90;56.35;;;;;;;;;;5095595;28;20093;-62
2021/12/14 08:49:49;;;;;;;176.10;58.17;;;;;;;;;;5076679;28;20050;-62
2021/12/14 08:52:15;;;;;;;172.88;54.78;;;;;;;;;;5092477;28;20098;-62
2021/12/14 08:54:42;;;;;;;179.63;57.88;;;;;;;;;;5092231;28;20525;-62
2021/12/14 08:57:13;;;;;;;163.55;56.20;;;;;;;;;;5091165;28;20044;-62
2021/12/14 08:59:41;;;;;;;185.02;60.55;;;;;;;;;;5096528;28;20044;-62
2021/12/14 09:02:08;;;;;;;194.27;57.30;;;;;;;;;;5093738;28;20042;-62
2021/12/14 09:04:37;;;;;;;167.38;55.65;;;;;;;;;;5095263;28;20164;-62
2021/12/14 09:07:12;;;;;;;202.23;59.70;;;;;;;;;;5093922;28;20059;-62
2021/12/14 09:09:40;;;;;;;187.43;58.30;;;;;;;;;;5095673;28;20046;-62
2021/12/14 09:12:07;;;;;;;212.13;60.97;;;;;;;;;;5109875;27;20040;-62
2021/12/14 09:14:34;;;;;;;185.00;56.80;;;;;;;;;;5091953;28;20057;-62
2021/12/14 09:17:00;;;;;;;222.23;61.53;;;;;;;;;;5095584;28;20032;-62
2021/12/14 09:19:30;;;;;;;193.52;58.33;;;;;;;;;;5091570;28;20387;-62
2021/12/14 09:21:58;;;;;;;194.98;58.25;;;;;;;;;;5094410;28;20089;-62
2021/12/14 09:24:26;;;;;;;220.90;60.95;;;;;;;;;;5090928;28;20148;-62
2021/12/14 09:26:55;;;;;;;208.07;61.28;;;;;;;;;;5091153;28;20131;-62
2021/12/14 09:29:22;;;;;;;180.27;57.17;;;;;;;;;;5093121;28;20052;-62
2021/12/14 09:31:50;;;;;;;181.40;56.15;;;;;;;;;;5091452;28;20048;-62
2021/12/14 09:34:17;;;;;;;207.27;59.38;;;;;;;;;;5093577;28;20509;-62
2021/12/14 09:36:44;;;;;;;197.10;58.35;;;;;;;;;;5093573;28;20563;-62
2021/12/14 09:39:16;;;;;;;196.88;59.22;;;;;;;;;;5092548;28;20375;-61
2021/12/14 09:41:44;;;;;;;206.27;59.10;;;;;;;;;;5089474;28;20051;-62
2021/12/14 09:44:11;;;;;;;187.38;56.88;;;;;;;;;;5092567;28;20039;-62
2021/12/14 09:46:38;;;;;;;193.43;57.65;;;;;;;;;;5092389;28;20036;-62
2021/12/14 09:49:07;;;;;;;185.57;55.25;;;;;;;;;;5092609;28;20569;-63
2021/12/14 09:51:36;;;;;;;190.63;54.65;;;;;;;;;;5092216;28;20044;-63
2021/12/14 09:54:04;;;;;;;179.55;53.28;;;;;;;;;;5091722;28;20059;-62
2021/12/14 09:56:33;;;;;;;172.43;52.42;;;;;;;;;;5088936;28;20089;-65
2021/12/14 09:59:02;;;;;;;203.70;55.55;;;;;;;;;;5090868;28;20048;-62
2021/12/14 10:01:30;;;;;;;211.15;59.65;;;;;;;;;;5092879;28;20123;-62
2021/12/14 10:03:59;;;;;;;181.40;57.22;;;;;;;;;;5089129;28;20040;-62
2021/12/14 10:06:27;;;;;;;194.45;55.83;;;;;;;;;;5090414;28;20070;-62
2021/12/14 10:08:59;;;;;;;191.88;56.20;;;;;;;;;;5092330;28;20085;-62
2021/12/14 10:11:40;;;;;;;180.38;56.55;;;;;;;;;;5092778;28;20050;-62
2021/12/14 10:14:08;;;;;;;198.88;54.17;;;;;;;;;;5092042;28;20044;-62
2021/12/14 10:16:35;;;;;;;187.20;56.25;;;;;;;;;;5092618;28;20044;-62
2021/12/14 10:19:05;;;;;;;203.73;55.97;;;;;;;;;;5092476;28;20040;-63
2021/12/14 10:21:33;;;;;;;209.60;56.13;;;;;;;;;;5091224;28;20094;-65
2021/12/14 10:24:01;;;;;;;202.93;56.90;;;;;;;;;;5092674;28;20036;-65
2021/12/14 10:26:32;;;;;;;205.88;57.60;;;;;;;;;;5090478;28;20040;-63
2021/12/14 10:28:59;;;;;;;192.30;54.50;;;;;;;;;;5092248;28;20036;-63
2021/12/14 10:31:34;;;;;;;203.20;56.35;;;;;;;;;;5092148;28;20056;-63
2021/12/14 10:34:02;;;;;;;195.05;55.78;;;;;;;;;;5090127;28;20044;-63
2021/12/14 10:36:35;;;;;;;197.27;53.28;;;;;;;;;;5092376;28;20043;-62
2021/12/14 10:39:22;;;;;;;178.00;52.70;;;;;;;;;;5104787;28;20048;-63
2021/12/14 10:44:40;;;;;;;190.68;53.58;;;;;;;;;;5092256;28;20047;-63
2021/12/14 10:47:07;;;;;;;187.68;51.92;;;;;;;;;;5090811;28;20052;-62
2021/12/14 10:49:33;;;;;;;188.48;52.20;;;;;;;;;;5091090;28;20047;-63
2021/12/14 10:52:02;;;;;;;179.23;50.10;;;;;;;;;;5090667;28;20495;-63
2021/12/14 10:54:29;;;;;;;186.73;50.67;;;;;;;;;;5091244;28;20118;-63
2021/12/14 10:57:02;;;;;;;164.77;47.38;;;;;;;;;;5090508;28;20124;-63
2021/12/14 10:59:30;;;;;;;170.05;45.80;;;;;;;;;;5091803;28;20097;-63
2021/12/14 11:01:56;;;;;;;177.40;47.65;;;;;;;;;;5091037;28;20119;-63
2021/12/14 11:04:27;;;;;;;125.28;41.25;;;;;;;;;;5091503;28;20043;-63
2021/12/14 11:06:53;;;;;;;143.63;42.15;;;;;;;;;;5091262;28;20094;-63
2021/12/14 11:12:07;;;;;;;130.70;38.85;;;;;;;;;;5087634;28;20475;-63
2021/12/14 11:14:37;;;;;;;143.35;39.95;;;;;;;;;;5083057;28;20488;-63
2021/12/14 11:19:54;;;;;;;119.93;36.78;;;;;;;;;;5084920;28;20059;-63
2021/12/14 11:22:22;;;;;;;123.43;37.63;;;;;;;;;;5085496;28;20503;-63
2021/12/14 11:24:50;;;;;;;113.00;35.03;;;;;;;;;;5084948;28;20048;-63
2021/12/14 11:27:18;;;;;;;131.20;37.53;;;;;;;;;;5084002;28;20122;-63
2021/12/14 11:29:45;;;;;;;112.95;36.42;;;;;;;;;;5082515;28;20048;-63
2021/12/14 11:32:19;;;;;;;140.65;36.17;;;;;;;;;;5083301;28;20039;-63
2021/12/14 11:34:46;;;;;;;132.80;36.53;;;;;;;;;;5083640;28;20418;-63
2021/12/14 11:37:16;;;;;;;143.35;35.28;;;;;;;;;;5081453;28;20368;-63
2021/12/14 11:39:44;;;;;;;114.63;32.90;;;;;;;;;;5102912;28;20044;-63
2021/12/14 11:42:13;;;;;;;102.95;32.60;;;;;;;;;;5074723;28;20117;-62
2021/12/14 11:44:57;;;;;;;100.60;31.08;;;;;;;;;;5075777;28;20120;-62
2021/12/14 11:49:54;;;;;;;84.95;27.58;;;;;;;;;;5079892;28;20045;-62
2021/12/14 11:52:39;;;;;;;81.60;26.75;;;;;;;;;;5081568;28;20032;-62
2021/12/14 11:55:24;;;;;;;78.75;27.00;;;;;;;;;;5079383;28;20033;-62
2021/12/14 11:58:01;;;;;;;81.03;28.02;;;;;;;;;;5080660;28;20520;-62
2021/12/14 12:00:27;;;;;;;91.03;27.35;;;;;;;;;;5082963;28;20172;-62
2021/12/14 12:02:53;;;;;;;100.07;29.05;;;;;;;;;;5088476;28;20365;-62
2021/12/14 12:05:22;;;;;;;94.32;29.23;;;;;;;;;;5087678;28;20114;-63
2021/12/14 12:10:41;;;;;;;95.65;28.23;;;;;;;;;;5083823;28;20092;-62
2021/12/14 12:13:07;;;;;;;89.28;27.85;;;;;;;;;;5079239;28;20049;-62
2021/12/14 12:15:38;;;;;;;95.72;30.23;;;;;;;;;;5085559;28;20047;-62
2021/12/14 12:18:05;;;;;;;117.72;30.83;;;;;;;;;;5084899;28;20036;-62
2021/12/14 12:20:38;;;;;;;108.45;29.55;;;;;;;;;;5085565;28;20421;-62
2021/12/14 12:23:06;;;;;;;98.43;27.65;;;;;;;;;;5083353;28;20341;-62
2021/12/14 12:25:36;;;;;;;92.05;27.90;;;;;;;;;;5084944;28;20510;-62
2021/12/14 12:28:04;;;;;;;84.78;26.38;;;;;;;;;;5090192;28;20043;-62
2021/12/14 12:30:36;;;;;;;90.30;27.45;;;;;;;;;;5088150;28;20438;-62
2021/12/14 12:33:07;;;;;;;83.93;25.45;;;;;;;;;;5089210;28;20105;-62
2021/12/14 12:35:33;;;;;;;86.82;26.10;;;;;;;;;;5086750;28;20032;-62
2021/12/14 12:38:02;;;;;;;81.38;25.48;;;;;;;;;;5089566;28;20047;-62
2021/12/14 12:40:37;;;;;;;77.95;24.58;;;;;;;;;;5081203;28;20472;-62
2021/12/14 12:43:16;;;;;;;91.72;25.85;;;;;;;;;;5083089;28;20044;-64
2021/12/14 12:45:52;;;;;;;72.80;23.38;;;;;;;;;;5096057;28;20140;-62
2021/12/14 12:48:37;;;;;;;78.82;22.35;;;;;;;;;;5093580;28;20126;-62
2021/12/14 12:51:03;;;;;;;76.50;23.00;;;;;;;;;;5094162;28;20119;-62
2021/12/14 12:53:30;;;;;;;81.47;24.23;;;;;;;;;;5094203;28;20154;-62
2021/12/14 12:56:04;;;;;;;82.35;22.33;;;;;;;;;;5093550;28;20078;-62
2021/12/14 12:58:30;;;;;;;73.70;23.75;;;;;;;;;;5094133;28;20380;-62
2021/12/14 13:00:58;;;;;;;69.38;21.85;;;;;;;;;;5092025;28;20535;-62
2021/12/14 13:03:28;;;;;;;67.32;21.00;;;;;;;;;;5088761;28;20070;-62
2021/12/14 13:05:57;;;;;;;53.40;20.05;;;;;;;;;;5092460;28;20048;-63
2021/12/14 13:08:25;;;;;;;58.58;20.58;;;;;;;;;;5093061;28;20043;-62
2021/12/14 13:10:53;;;;;;;66.25;22.08;;;;;;;;;;5093658;28;20070;-62
2021/12/14 13:13:19;;;;;;;69.60;20.95;;;;;;;;;;5093383;28;20083;-62
2021/12/14 13:15:58;;;;;;;66.40;20.80;;;;;;;;;;5092911;28;20078;-62
2021/12/14 13:18:26;;;;;;;62.33;20.58;;;;;;;;;;5093412;28;20043;-62
2021/12/14 13:20:56;;;;;;;62.90;20.20;;;;;;;;;;5092363;28;20471;-62
2021/12/14 13:23:37;;;;;;;68.38;21.73;;;;;;;;;;5091425;28;20316;-62
2021/12/14 13:26:18;;;;;;;54.65;20.88;;;;;;;;;;5093351;28;20090;-63
2021/12/14 13:28:44;;;;;;;68.80;22.15;;;;;;;;;;5093341;28;20368;-62
2021/12/14 13:31:22;;;;;;;69.38;20.45;;;;;;;;;;5092726;28;20032;-62
2021/12/14 13:33:48;;;;;;;67.40;20.55;;;;;;;;;;5091968;28;20615;-63
2021/12/14 13:36:14;;;;;;;72.15;22.48;;;;;;;;;;5092508;28;20032;-62
2021/12/14 13:38:40;;;;;;;66.78;21.23;;;;;;;;;;5093483;28;20399;-62
2021/12/14 13:41:15;;;;;;;69.18;23.00;;;;;;;;;;5087957;28;20154;-62
2021/12/14 13:43:41;;;;;;;74.55;23.00;;;;;;;;;;5092632;28;20043;-62
2021/12/14 13:46:07;;;;;;;66.80;22.27;;;;;;;;;;5093269;28;20127;-62
2021/12/14 13:48:35;;;;;;;68.70;22.13;;;;;;;;;;5093050;28;20062;-62
2021/12/14 13:51:09;;;;;;;66.45;21.48;;;;;;;;;;5092442;28;20055;-62
2021/12/14 13:53:36;;;;;;;58.88;19.90;;;;;;;;;;5091547;28;20163;-62
2021/12/14 13:56:04;;;;;;;59.63;20.35;;;;;;;;;;5075194;28;20391;-63
2021/12/14 13:58:32;;;;;;;70.97;21.48;;;;;;;;;;5091966;28;20067;-62
2021/12/14 14:01:00;;;;;;;59.17;19.33;;;;;;;;;;5092534;28;20032;-62
2021/12/14 14:03:29;;;;;;;69.97;20.75;;;;;;;;;;5092441;28;20047;-62
2021/12/14 14:05:57;;;;;;;50.45;17.23;;;;;;;;;;5091934;28;20480;-62
2021/12/14 14:08:25;;;;;;;51.60;16.92;;;;;;;;;;5091209;28;20513;-62
2021/12/14 14:10:52;;;;;;;45.35;16.13;;;;;;;;;;5087495;28;20454;-62
2021/12/14 14:13:21;;;;;;;48.10;15.77;;;;;;;;;;5089297;28;20127;-62
2021/12/14 14:15:50;;;;;;;35.75;12.88;;;;;;;;;;5092283;28;20112;-62
2021/12/14 14:18:16;;;;;;;38.97;14.02;;;;;;;;;;5091870;28;20044;-62
2021/12/14 14:20:48;;;;;;;38.00;14.05;;;;;;;;;;5091081;28;20365;-62
2021/12/14 14:23:22;;;;;;;36.80;13.60;;;;;;;;;;5092384;28;20509;-62
2021/12/14 14:25:51;;;;;;;37.33;14.38;;;;;;;;;;5091468;28;20219;-62
2021/12/14 14:28:37;;;;;;;46.78;15.13;;;;;;;;;;5092090;28;20052;-62
2021/12/14 14:31:06;;;;;;;48.08;16.50;;;;;;;;;;5092120;28;20040;-62
2021/12/14 14:33:44;;;;;;;45.65;16.60;;;;;;;;;;5091731;28;20043;-62
2021/12/14 14:36:22;;;;;;;40.42;16.15;;;;;;;;;;5099316;28;20048;-62
2021/12/14 14:38:49;;;;;;;42.80;15.65;;;;;;;;;;5102158;28;20066;-62
2021/12/14 14:41:19;;;;;;;48.53;15.93;;;;;;;;;;5091672;28;20098;-65
2021/12/14 14:43:56;;;;;;;57.65;16.70;;;;;;;;;;5088644;27;20124;-62
2021/12/14 14:46:38;;;;;;;53.67;17.90;;;;;;;;;;5082249;28;20044;-62
2021/12/14 14:49:05;;;;;;;59.13;19.20;;;;;;;;;;5086924;28;20044;-62
2021/12/14 14:51:47;;;;;;;49.60;17.77;;;;;;;;;;5087862;28;20455;-62
2021/12/14 14:54:41;;;;;;;59.83;19.20;;;;;;;;;;5084904;28;20040;-65
2021/12/14 14:57:07;;;;;;;53.58;18.75;;;;;;;;;;5087298;28;20051;-63
2021/12/14 14:59:34;;;;;;;56.95;20.40;;;;;;;;;;5093644;28;20086;-64